createdAt,value
2019-01-10T07:56:24.121Z,72.90
2019-01-10T07:58:52.638Z,69.20
2019-01-10T08:01:23.177Z,69.70
2019-01-10T08:03:51.620Z,70.00
2019-01-10T08:06:19.998Z,69.90
2019-01-10T08:08:48.373Z,69.70
2019-01-10T08:11:16.789Z,69.30
2019-01-10T08:13:45.102Z,69.10
2019-01-10T08:16:13.810Z,68.80
2019-01-10T08:18:42.148Z,68.10
2019-01-10T08:21:11.945Z,67.50
2019-01-10T08:23:40.250Z,67.20
2019-01-10T08:26:08.684Z,66.90
2019-01-10T08:28:37.105Z,66.70
2019-01-10T08:31:05.897Z,66.60
2019-01-10T08:33:37.371Z,64.00
2019-01-10T08:36:09.929Z,63.90
2019-01-10T08:38:38.697Z,64.10
2019-01-10T08:41:07.208Z,64.30
2019-01-10T08:43:35.812Z,64.50
2019-01-10T08:46:04.653Z,64.60
2019-01-10T08:48:33.137Z,64.60
2019-01-10T08:51:01.841Z,64.50
2019-01-10T08:53:30.546Z,64.40
2019-01-10T08:55:59.196Z,64.40
2019-01-10T08:58:27.697Z,64.40
2019-01-10T09:00:56.145Z,64.10
2019-01-10T09:03:25.220Z,63.80
2019-01-10T09:05:53.673Z,63.70
2019-01-10T09:08:22.199Z,63.50
2019-01-10T09:10:50.830Z,63.40
2019-01-10T09:13:19.305Z,63.20
2019-01-10T09:15:47.740Z,63.20
2019-01-10T09:18:16.181Z,63.10
2019-01-10T09:20:44.690Z,63.10
2019-01-10T09:23:13.238Z,62.90
2019-01-10T09:25:41.789Z,63.10
2019-01-10T09:28:10.337Z,63.10
2019-01-10T09:30:39.181Z,63.20
2019-01-10T09:33:08.241Z,63.40
2019-01-10T09:35:36.762Z,63.50
2019-01-10T09:38:05.709Z,63.70
2019-01-10T09:40:34.206Z,63.80
2019-01-10T09:43:02.669Z,64.80
2019-01-10T09:45:31.605Z,64.00
2019-01-10T09:47:59.932Z,64.00
2019-01-10T09:50:28.517Z,64.10
2019-01-10T09:52:56.957Z,64.20
2019-01-10T09:55:25.438Z,64.30
2019-01-10T09:57:54.061Z,64.40
2019-01-10T10:00:27.654Z,64.30
2019-01-10T10:02:56.397Z,64.20
2019-01-10T10:05:25.145Z,64.00
2019-01-10T10:07:53.653Z,63.80
2019-01-10T10:10:22.322Z,63.40
2019-01-10T10:12:52.065Z,62.70
2019-01-10T10:15:21.788Z,61.20
2019-01-10T10:17:50.607Z,61.40
2019-01-10T10:20:21.503Z,61.40
2019-01-10T10:22:49.980Z,61.10
2019-01-10T10:25:18.694Z,60.80
2019-01-10T10:27:47.458Z,60.40
2019-01-10T10:30:18.613Z,60.10
2019-01-10T10:32:47.157Z,59.90
2019-01-10T10:35:16.088Z,59.60
2019-01-10T10:37:44.985Z,59.50
2019-01-10T10:40:15.961Z,59.40
2019-01-10T10:42:44.484Z,59.10
2019-01-10T10:45:14.677Z,59.00
2019-01-10T10:47:43.146Z,59.00
2019-01-10T10:50:28.379Z,58.70
2019-01-10T10:52:56.905Z,58.60
2019-01-10T10:55:25.565Z,58.40
2019-01-10T10:57:54.377Z,58.30
2019-01-10T11:00:28.395Z,58.20
2019-01-10T11:02:58.308Z,58.00
2019-01-10T11:05:27.117Z,57.80
2019-01-10T11:07:57.008Z,57.60
2019-01-10T11:10:25.674Z,57.10
2019-01-10T11:12:54.209Z,56.90
2019-01-10T11:15:22.782Z,53.50
2019-01-10T11:17:51.217Z,53.80
2019-01-10T11:20:21.994Z,54.20
2019-01-10T11:22:50.520Z,54.30
2019-01-10T11:25:24.562Z,54.50
2019-01-10T11:27:53.685Z,54.70
2019-01-10T11:30:22.219Z,54.70
2019-01-10T11:32:50.821Z,55.00
2019-01-10T11:35:19.257Z,54.90
2019-01-10T11:37:47.736Z,55.00
2019-01-10T11:40:18.214Z,55.10
2019-01-10T11:42:51.429Z,55.00
2019-01-10T11:45:22.081Z,54.70
2019-01-10T11:47:50.981Z,54.30
2019-01-10T11:50:19.542Z,54.60
2019-01-10T11:52:49.538Z,54.50
2019-01-10T11:55:18.126Z,54.60
2019-01-10T11:57:46.865Z,54.60
2019-01-10T12:00:39.249Z,54.50
2019-01-10T12:03:08.110Z,54.30
2019-01-10T12:05:47.265Z,54.40
2019-01-10T12:08:09.165Z,54.40
2019-01-10T12:10:37.550Z,54.20
2019-01-10T12:13:06.066Z,51.90
2019-01-10T12:15:34.398Z,52.10
2019-01-10T12:18:03.105Z,52.60
2019-01-10T12:20:31.514Z,53.60
2019-01-10T12:23:00.475Z,53.10
2019-01-10T12:25:28.800Z,53.30
2019-01-10T12:27:57.325Z,65.80
2019-01-10T12:30:27.552Z,64.20
2019-01-10T12:32:56.069Z,63.60
2019-01-10T12:35:25.226Z,63.40
2019-01-10T12:37:54.109Z,62.90
2019-01-10T12:40:22.551Z,62.40
2019-01-10T12:42:51.068Z,61.90
2019-01-10T12:45:20.304Z,61.60
2019-01-10T12:47:48.836Z,61.10
2019-01-10T12:50:20.762Z,60.60
2019-01-10T12:52:50.885Z,60.30
2019-01-10T12:55:21.461Z,60.00
2019-01-10T12:57:49.991Z,60.00
2019-01-10T13:00:19.892Z,60.00
2019-01-10T13:02:48.372Z,59.90
2019-01-10T13:05:17.096Z,57.00
2019-01-10T13:07:45.416Z,57.30
2019-01-10T13:10:16.763Z,57.70
2019-01-10T13:12:45.714Z,58.10
2019-01-10T13:15:22.673Z,58.40
2019-01-10T13:17:52.225Z,59.30
2019-01-10T13:20:21.121Z,58.70
2019-01-10T13:22:51.004Z,58.50
2019-01-10T13:25:20.864Z,58.30
2019-01-10T13:27:50.452Z,58.30
2019-01-10T13:30:21.117Z,58.30
2019-01-10T13:32:50.230Z,58.20
2019-01-10T13:35:18.822Z,58.50
2019-01-10T13:37:47.480Z,58.50
2019-01-10T13:40:16.445Z,58.50
2019-01-10T13:42:45.095Z,58.50
2019-01-10T13:45:14.274Z,58.60
2019-01-10T13:47:45.446Z,58.60
2019-01-10T13:50:17.062Z,58.60
2019-01-10T13:52:45.556Z,58.60
2019-01-10T13:55:15.740Z,58.60
2019-01-10T13:57:51.387Z,58.70
2019-01-10T14:00:22.679Z,58.40
2019-01-10T14:02:51.311Z,58.40
2019-01-10T14:05:19.885Z,58.50
2019-01-10T14:07:48.280Z,58.50
2019-01-10T14:10:17.742Z,58.60
2019-01-10T14:12:46.489Z,58.70
2019-01-10T14:15:18.362Z,58.80
2019-01-10T14:17:46.883Z,58.90
2019-01-10T14:20:16.814Z,59.10
2019-01-10T14:22:45.668Z,59.30
2019-01-10T14:25:15.014Z,59.60
2019-01-10T14:27:45.077Z,59.70
2019-01-10T14:30:20.404Z,60.20
2019-01-10T14:32:49.940Z,61.50
2019-01-10T14:35:21.829Z,73.60
2019-01-10T14:37:50.754Z,80.80
2019-01-10T14:40:19.406Z,82.70
2019-01-10T14:42:48.022Z,84.80
2019-01-10T14:45:16.816Z,87.00
2019-01-10T14:47:45.465Z,88.20
2019-01-10T14:50:15.457Z,88.80
2019-01-10T14:52:44.186Z,89.60
2019-01-10T14:55:13.358Z,90.10
2019-01-10T14:57:41.889Z,90.10
2019-01-10T15:00:19.007Z,90.70
2019-01-10T15:02:47.592Z,91.60
2019-01-10T15:05:16.341Z,92.70
2019-01-10T15:07:44.905Z,93.90
2019-01-10T15:10:14.359Z,94.80
2019-01-10T15:12:43.905Z,95.20
2019-01-10T15:15:15.873Z,95.40
2019-01-10T15:17:44.555Z,95.60
2019-01-10T15:20:20.909Z,95.80
2019-01-10T15:22:52.497Z,95.90
2019-01-10T15:25:21.188Z,96.00
2019-01-10T15:27:49.669Z,96.20
2019-01-10T15:30:20.406Z,96.30
2019-01-10T15:32:48.916Z,96.40
2019-01-10T15:35:17.613Z,96.50
2019-01-10T15:37:46.268Z,96.60
2019-01-10T15:40:20.997Z,96.80
2019-01-10T15:42:49.914Z,96.80
2019-01-10T15:45:18.521Z,96.90
2019-01-10T15:47:46.951Z,97.10
2019-01-10T15:50:16.937Z,97.10
2019-01-10T15:52:45.509Z,97.30
2019-01-10T15:55:15.485Z,97.40
2019-01-10T15:57:44.083Z,97.50
2019-01-10T16:00:15.393Z,97.60
2019-01-10T16:02:43.788Z,97.70
2019-01-10T16:05:14.893Z,97.80
2019-01-10T16:07:43.353Z,97.90
2019-01-10T16:10:14.826Z,98.10
2019-01-10T16:12:43.525Z,98.10
2019-01-10T16:15:15.348Z,98.30
2019-01-10T16:17:43.980Z,98.50
2019-01-10T16:20:12.881Z,98.70
2019-01-10T16:22:41.553Z,98.90
2019-01-10T16:25:10.870Z,99.10
2019-01-10T16:27:39.524Z,99.20
2019-01-10T16:30:12.796Z,99.50
2019-01-10T16:32:41.541Z,99.70
2019-01-10T16:35:10.217Z,99.90
2019-01-10T16:37:38.858Z,99.90
2019-01-10T16:40:08.472Z,99.90
2019-01-10T16:59:59.169Z,96.80
2019-01-10T17:02:27.614Z,98.10
2019-01-10T17:04:56.121Z,95.70
2019-01-10T17:07:24.544Z,95.40
2019-01-10T17:09:52.934Z,96.40
2019-01-10T17:12:21.473Z,97.20
2019-01-10T17:14:49.909Z,97.00
2019-01-10T17:24:43.766Z,70.60
2019-01-10T17:27:12.487Z,71.30
2019-01-10T17:29:40.976Z,71.70
2019-01-10T18:01:53.787Z,91.30
2019-01-10T18:04:22.533Z,91.40
2019-01-10T18:06:51.089Z,91.40
2019-01-10T18:09:19.426Z,91.40
2019-01-10T18:11:47.885Z,61.30
2019-01-10T18:14:16.458Z,61.40
2019-01-10T18:36:35.897Z,61.10
2019-01-10T18:39:07.042Z,62.10
2019-01-10T18:41:35.497Z,62.40
2019-01-10T18:44:04.156Z,63.20
2019-01-10T18:46:32.512Z,62.70
2019-01-10T18:49:01.118Z,62.90
2019-01-10T18:51:29.578Z,62.70
2019-01-10T18:53:58.183Z,62.90
2019-01-10T18:56:26.721Z,62.90
2019-01-10T18:58:55.338Z,63.00
2019-01-10T19:01:24.171Z,63.00
2019-01-10T19:03:52.729Z,63.20
2019-01-10T19:06:21.234Z,63.10
2019-01-10T19:08:49.636Z,63.20
2019-01-10T19:11:18.061Z,63.20
2019-01-10T19:13:46.516Z,63.40
2019-01-10T19:16:14.917Z,63.50
2019-01-10T19:18:43.462Z,63.50
2019-01-10T19:21:11.880Z,63.60
2019-01-10T19:23:40.236Z,63.70
2019-01-10T19:26:08.727Z,63.70
2019-01-10T19:28:37.149Z,63.70
2019-01-10T19:31:05.613Z,63.80
2019-01-10T19:33:34.053Z,63.80
2019-01-10T19:36:02.503Z,63.90
2019-01-10T19:38:31.124Z,64.00
2019-01-10T19:40:59.905Z,64.00
2019-01-10T19:43:28.328Z,64.00
2019-01-10T19:45:56.772Z,64.20
2019-01-10T19:48:25.403Z,64.20
2019-01-10T19:50:53.872Z,64.20
2019-01-10T19:53:22.870Z,64.30
2019-01-10T19:55:51.738Z,64.40
2019-01-10T19:58:20.065Z,64.50
2019-01-10T20:00:51.951Z,64.50
2019-01-10T20:03:21.125Z,64.60
2019-01-10T20:05:50.386Z,64.70
2019-01-10T20:08:19.777Z,64.70
2019-01-10T20:10:48.285Z,64.80
2019-01-10T20:13:17.038Z,64.80
2019-01-10T20:15:45.545Z,64.80
2019-01-10T20:18:16.374Z,65.90
2019-01-10T20:20:45.135Z,66.20
2019-01-10T20:23:21.558Z,66.10
2019-01-10T20:25:53.483Z,66.10
2019-01-10T20:28:22.340Z,66.10
2019-01-10T20:30:51.165Z,66.00
2019-01-10T20:33:21.611Z,67.00
2019-01-10T20:35:50.097Z,66.10
2019-01-10T20:38:18.841Z,66.10
2019-01-10T20:40:47.449Z,66.10
2019-01-10T20:43:16.241Z,66.10
2019-01-10T20:45:44.845Z,66.20
2019-01-10T20:48:13.273Z,66.10
2019-01-10T20:50:42.033Z,66.20
2019-01-10T20:53:10.674Z,66.20
2019-01-10T20:55:39.323Z,66.40
2019-01-10T20:58:07.930Z,66.20
2019-01-10T21:00:36.681Z,66.40
2019-01-10T21:03:05.761Z,66.40
2019-01-10T21:05:34.918Z,66.40
2019-01-10T21:08:03.933Z,66.50
2019-01-10T21:10:33.068Z,66.60
2019-01-10T21:13:01.558Z,66.60
2019-01-10T21:15:31.122Z,67.80
2019-01-10T21:17:59.732Z,68.10
2019-01-10T21:20:28.340Z,68.00
2019-01-10T21:22:59.610Z,68.00
2019-01-10T21:25:28.989Z,67.90
2019-01-10T21:27:58.275Z,68.00
2019-01-10T21:30:27.120Z,67.90
2019-01-10T21:32:56.276Z,67.90
2019-01-10T21:35:24.746Z,68.30
2019-01-10T21:37:53.223Z,68.60
2019-01-10T21:40:22.770Z,68.40
2019-01-10T21:42:53.088Z,68.50
2019-01-10T21:45:23.218Z,68.40
2019-01-10T21:47:52.446Z,68.30
2019-01-10T21:50:23.160Z,68.20
2019-01-10T21:52:53.117Z,68.10
2019-01-10T21:55:22.697Z,68.10
2019-01-10T21:57:53.116Z,68.00
2019-01-10T22:00:26.383Z,67.50
2019-01-10T22:02:57.312Z,68.00
2019-01-10T22:05:26.201Z,68.00
2019-01-10T22:08:07.056Z,68.00
2019-01-10T22:10:45.321Z,68.00
2019-01-10T22:13:15.251Z,68.00
2019-01-10T22:15:43.766Z,68.10
2019-01-10T22:18:12.758Z,68.10
2019-01-10T22:20:41.144Z,68.10
2019-01-10T22:23:09.629Z,68.10
2019-01-10T22:25:38.093Z,69.00
2019-01-10T22:28:06.482Z,68.20
2019-01-10T22:30:34.864Z,68.50
2019-01-10T22:33:05.133Z,68.70
2019-01-10T22:35:35.540Z,68.50
2019-01-10T22:38:05.510Z,68.50
2019-01-10T22:40:34.619Z,68.50
2019-01-10T22:43:03.129Z,68.50
2019-01-10T22:45:31.637Z,68.40
2019-01-10T22:48:00.257Z,68.40
2019-01-10T22:50:28.849Z,68.40
2019-01-10T22:52:57.229Z,68.40
2019-01-10T22:55:26.105Z,68.40
2019-01-10T22:57:54.552Z,68.40
2019-01-10T23:01:20.871Z,68.40
2019-01-10T23:03:49.617Z,68.40
2019-01-10T23:06:18.203Z,68.70
2019-01-10T23:08:47.078Z,68.50
2019-01-10T23:11:22.849Z,68.60
2019-01-10T23:13:59.077Z,68.70
2019-01-10T23:16:27.796Z,69.50
2019-01-10T23:18:56.337Z,68.70
2019-01-10T23:21:25.313Z,68.80
2019-01-10T23:24:10.905Z,68.90
2019-01-10T23:26:39.609Z,68.90
2019-01-10T23:29:07.984Z,69.00
2019-01-10T23:31:37.008Z,69.00
2019-01-10T23:34:15.077Z,69.20
2019-01-10T23:36:50.204Z,69.10
2019-01-10T23:39:23.122Z,69.30
2019-01-10T23:41:53.341Z,69.20
2019-01-10T23:44:21.961Z,69.30
2019-01-10T23:46:50.569Z,69.30
2019-01-10T23:49:19.243Z,69.30
2019-01-10T23:51:47.684Z,69.30
2019-01-10T23:54:16.094Z,69.40
2019-01-10T23:56:44.613Z,69.40
2019-01-10T23:59:13.340Z,69.30
